createdAt,value
2022-10-03T00:01:28.696Z,97713.00
2022-10-03T00:04:32.828Z,97716.00
2022-10-03T00:07:11.545Z,97708.00
2022-10-03T00:10:13.349Z,97705.00
2022-10-03T00:12:58.299Z,97704.00
2022-10-03T00:15:36.584Z,97708.00
2022-10-03T00:18:34.302Z,97717.00
2022-10-03T00:21:23.408Z,97731.00
2022-10-03T00:24:34.382Z,97750.00
2022-10-03T00:27:32.980Z,97749.00
2022-10-03T00:30:25.239Z,97752.00
2022-10-03T00:33:37.524Z,97749.00
2022-10-03T00:36:16.596Z,97748.00
2022-10-03T00:39:02.437Z,97732.00
2022-10-03T00:42:13.452Z,97724.00
2022-10-03T00:44:58.027Z,97724.00
2022-10-03T00:47:47.803Z,97734.00
2022-10-03T00:50:41.919Z,97747.00
2022-10-03T00:53:52.463Z,97740.00
2022-10-03T00:57:00.766Z,97749.00
2022-10-03T01:00:08.702Z,97755.00
2022-10-03T01:02:44.158Z,97758.00
2022-10-03T01:05:31.816Z,97767.00
2022-10-03T01:08:40.559Z,97767.00
2022-10-03T01:11:38.004Z,97775.00
2022-10-03T01:14:31.392Z,97778.00
2022-10-03T01:17:29.488Z,97777.00
2022-10-03T01:20:35.575Z,97788.00
2022-10-03T01:23:14.010Z,97785.00
2022-10-03T01:26:21.023Z,97791.00
2022-10-03T01:29:17.158Z,97790.00
2022-10-03T01:31:54.107Z,97779.00
2022-10-03T01:34:38.650Z,97777.00
2022-10-03T01:37:41.064Z,97784.00
2022-10-03T01:40:38.171Z,97787.00
2022-10-03T01:43:36.211Z,97780.00
2022-10-03T01:46:56.602Z,97787.00
2022-10-03T01:50:07.359Z,97789.00
2022-10-03T01:52:53.493Z,97792.00
2022-10-03T01:55:42.248Z,97792.00
2022-10-03T01:58:51.703Z,97789.00
2022-10-03T02:01:50.211Z,97789.00
2022-10-03T02:05:00.641Z,97789.00
2022-10-03T02:08:11.108Z,97786.00
2022-10-03T02:11:04.201Z,97784.00
2022-10-03T02:14:30.871Z,97778.00
2022-10-03T02:17:05.025Z,97780.00
2022-10-03T02:19:48.572Z,97781.00
2022-10-03T02:22:53.205Z,97787.00
2022-10-03T02:25:50.295Z,97795.00
2022-10-03T02:28:38.306Z,97797.00
2022-10-03T02:31:32.276Z,97802.00
2022-10-03T02:34:17.528Z,97798.00
2022-10-03T02:37:08.459Z,97804.00
2022-10-03T02:39:44.105Z,97794.00
2022-10-03T02:42:50.741Z,97788.00
2022-10-03T02:46:05.062Z,97784.00
2022-10-03T02:49:02.838Z,97779.00
2022-10-03T02:52:22.820Z,97775.00
2022-10-03T02:55:44.402Z,97781.00
2022-10-03T02:59:00.703Z,97778.00
2022-10-03T03:01:47.235Z,97778.00
2022-10-03T03:04:47.593Z,97778.00
2022-10-03T03:07:31.558Z,97772.00
2022-10-03T03:10:13.234Z,97777.00
2022-10-03T03:13:17.271Z,97793.00
2022-10-03T03:16:33.123Z,97793.00
2022-10-03T03:19:26.635Z,97787.00
2022-10-03T03:22:11.027Z,97785.00
2022-10-03T03:25:04.968Z,97788.00
2022-10-03T03:28:14.968Z,97787.00
2022-10-03T03:31:13.242Z,97781.00
2022-10-03T03:34:00.311Z,97778.00
2022-10-03T03:36:58.021Z,97773.00
2022-10-03T03:40:08.149Z,97771.00
2022-10-03T03:43:22.492Z,97765.00
2022-10-03T03:46:18.779Z,97766.00
2022-10-03T03:49:01.616Z,97770.00
2022-10-03T03:52:01.755Z,97767.00
2022-10-03T03:54:52.952Z,97768.00
2022-10-03T03:57:27.864Z,97773.00
2022-10-03T04:00:29.443Z,97776.00
2022-10-03T04:03:25.910Z,97781.00
2022-10-03T04:06:05.900Z,97771.00
2022-10-03T04:09:00.753Z,97779.00
2022-10-03T04:11:49.877Z,97778.00
2022-10-03T04:14:39.566Z,97778.00
2022-10-03T04:17:46.032Z,97788.00
2022-10-03T04:20:39.644Z,97788.00
2022-10-03T04:23:50.810Z,97785.00
2022-10-03T04:26:51.907Z,97797.00
2022-10-03T04:29:47.110Z,97799.00
2022-10-03T04:32:47.054Z,97798.00
2022-10-03T04:35:40.868Z,97803.00
2022-10-03T04:38:48.843Z,97797.00
2022-10-03T04:42:04.037Z,97788.00
2022-10-03T04:44:54.905Z,97796.00
2022-10-03T04:47:44.406Z,97796.00
2022-10-03T04:50:44.456Z,97797.00
2022-10-03T04:53:22.105Z,97797.00
2022-10-03T04:56:06.239Z,97793.00
2022-10-03T04:58:38.617Z,97789.00
2022-10-03T05:01:20.444Z,97794.00
2022-10-03T05:05:01.068Z,97799.00
2022-10-03T05:07:48.194Z,97799.00
2022-10-03T05:10:39.261Z,97799.00
2022-10-03T05:13:16.529Z,97805.00
2022-10-03T05:16:18.369Z,97806.00
2022-10-03T05:18:57.775Z,97811.00
2022-10-03T05:21:39.530Z,97810.00
2022-10-03T05:24:09.406Z,97808.00
2022-10-03T05:27:03.186Z,97808.00
2022-10-03T05:30:04.045Z,97809.00
2022-10-03T05:32:42.513Z,97818.00
2022-10-03T05:36:01.517Z,97819.00
2022-10-03T05:38:47.239Z,97823.00
2022-10-03T05:41:36.316Z,97820.00
2022-10-03T05:44:18.483Z,97832.00
2022-10-03T05:47:31.209Z,97831.00
2022-10-03T05:50:18.088Z,97826.00
2022-10-03T05:53:30.154Z,97838.00
2022-10-03T05:56:51.092Z,97841.00
2022-10-03T05:59:41.470Z,97848.00
2022-10-03T06:02:35.521Z,97844.00
2022-10-03T06:05:45.250Z,97847.00
2022-10-03T06:08:41.756Z,97853.00
2022-10-03T06:11:26.309Z,97850.00
2022-10-03T06:14:15.587Z,97849.00
2022-10-03T06:17:11.468Z,97869.00
2022-10-03T06:20:17.287Z,97869.00
2022-10-03T06:23:12.335Z,97882.00
2022-10-03T06:26:22.182Z,97867.00
2022-10-03T06:29:38.440Z,97865.00
2022-10-03T06:32:51.883Z,97855.00
2022-10-03T06:36:12.721Z,97866.00
2022-10-03T06:39:13.350Z,97859.00
2022-10-03T06:42:10.520Z,97861.00
2022-10-03T06:45:09.636Z,97859.00
2022-10-03T06:47:59.294Z,97861.00
2022-10-03T06:50:46.937Z,97866.00
2022-10-03T06:53:31.946Z,97866.00
2022-10-03T06:56:41.004Z,97869.00
2022-10-03T06:59:25.932Z,97865.00
2022-10-03T07:02:21.075Z,97864.00
2022-10-03T07:05:40.784Z,97862.00
2022-10-03T07:08:28.747Z,97857.00
2022-10-03T07:11:01.232Z,97859.00
2022-10-03T07:13:35.035Z,97859.00
2022-10-03T07:16:37.376Z,97862.00
2022-10-03T07:19:42.638Z,97867.00
2022-10-03T07:22:33.293Z,97878.00
2022-10-03T07:25:36.199Z,97881.00
2022-10-03T07:28:35.067Z,97885.00
2022-10-03T07:31:28.258Z,97882.00
2022-10-03T07:34:32.931Z,97889.00
2022-10-03T07:37:35.698Z,97890.00
2022-10-03T07:41:15.111Z,97896.00
2022-10-03T07:45:10.253Z,97901.00
2022-10-03T07:48:49.401Z,97903.00
2022-10-03T07:52:08.102Z,97898.00
2022-10-03T08:05:41.584Z,97897.00
2022-10-03T08:09:38.031Z,97904.00
2022-10-03T08:17:40.034Z,97896.00
2022-10-03T08:24:34.393Z,97898.00
2022-10-03T08:27:16.369Z,97898.00
2022-10-03T08:29:54.637Z,97894.00
2022-10-03T08:32:32.766Z,97895.00
2022-10-03T08:35:02.723Z,97895.00
2022-10-03T08:38:00.682Z,97896.00
2022-10-03T08:41:00.576Z,97898.00
2022-10-03T08:44:08.661Z,97893.00
2022-10-03T08:46:47.256Z,97891.00
2022-10-03T08:49:34.024Z,97890.00
2022-10-03T08:52:24.953Z,97895.00
2022-10-03T08:55:03.705Z,97896.00
2022-10-03T08:58:26.575Z,97896.00
2022-10-03T09:01:31.361Z,97899.00
2022-10-03T09:04:29.276Z,97899.00
2022-10-03T09:07:40.751Z,97902.00
2022-10-03T09:10:52.355Z,97897.00
2022-10-03T09:13:37.921Z,97901.00
2022-10-03T09:17:02.728Z,97910.00
2022-10-03T09:20:04.328Z,97911.00
2022-10-03T09:22:45.990Z,97908.00
2022-10-03T09:25:24.634Z,97913.00
2022-10-03T09:28:33.609Z,97917.00
2022-10-03T09:31:40.962Z,97923.00
2022-10-03T09:34:39.822Z,97926.00
2022-10-03T09:37:54.765Z,97925.00
2022-10-03T09:40:40.424Z,97913.00
2022-10-03T09:43:42.994Z,97918.00
2022-10-03T09:46:46.186Z,97923.00
2022-10-03T09:49:39.899Z,97914.00
2022-10-03T09:53:00.375Z,97909.00
2022-10-03T09:55:41.177Z,97907.00
2022-10-03T09:58:41.151Z,97911.00
2022-10-03T10:01:37.519Z,97903.00
2022-10-03T10:04:54.133Z,97898.00
2022-10-03T10:08:02.374Z,97898.00
2022-10-03T10:10:58.148Z,97889.00
2022-10-03T10:14:12.917Z,97889.00
2022-10-03T10:17:12.472Z,97892.00
2022-10-03T10:19:57.223Z,97885.00
2022-10-03T10:23:13.509Z,97887.00
2022-10-03T10:26:42.772Z,97889.00
2022-10-03T10:29:48.780Z,97892.00
2022-10-03T10:32:21.551Z,97900.00
2022-10-03T10:35:07.255Z,97900.00
2022-10-03T10:37:55.963Z,97898.00
2022-10-03T10:40:50.922Z,97896.00
2022-10-03T10:43:53.863Z,97895.00
2022-10-03T10:46:47.061Z,97887.00
2022-10-03T10:49:51.169Z,97888.00
2022-10-03T10:53:03.358Z,97884.00
2022-10-03T10:56:10.464Z,97886.00
2022-10-03T10:59:20.109Z,97873.00
2022-10-03T11:02:33.882Z,97879.00
2022-10-03T11:05:56.244Z,97876.00
2022-10-03T11:09:03.933Z,97864.00
2022-10-03T11:11:58.395Z,97876.00
2022-10-03T11:14:53.371Z,97873.00
2022-10-03T11:18:15.734Z,97861.00
2022-10-03T11:21:19.471Z,97863.00
2022-10-03T11:24:52.416Z,97851.00
2022-10-03T11:28:05.915Z,97858.00
2022-10-03T11:31:15.766Z,97860.00
2022-10-03T11:34:09.330Z,97846.00
2022-10-03T11:37:06.291Z,97849.00
2022-10-03T11:39:44.549Z,97849.00
2022-10-03T11:42:57.480Z,97854.00
2022-10-03T11:45:55.358Z,97854.00
2022-10-03T11:48:43.017Z,97850.00
2022-10-03T11:51:19.454Z,97850.00
2022-10-03T11:54:32.844Z,97848.00
2022-10-03T11:57:30.717Z,97846.00
2022-10-03T12:00:17.567Z,97853.00
2022-10-03T12:03:09.055Z,97848.00
2022-10-03T12:06:22.208Z,97842.00
2022-10-03T12:09:33.188Z,97848.00
2022-10-03T12:12:35.458Z,97844.00
2022-10-03T12:15:35.934Z,97844.00
2022-10-03T12:18:10.811Z,97840.00
2022-10-03T12:21:02.345Z,97827.00
2022-10-03T12:23:54.075Z,97825.00
2022-10-03T12:26:43.401Z,97821.00
2022-10-03T12:29:21.238Z,97821.00
2022-10-03T12:32:20.990Z,97828.00
2022-10-03T12:35:26.038Z,97829.00
2022-10-03T12:38:13.825Z,97823.00
2022-10-03T12:40:50.093Z,97819.00
2022-10-03T12:44:08.340Z,97827.00
2022-10-03T12:47:09.381Z,97816.00
2022-10-03T12:50:39.245Z,97832.00
2022-10-03T12:53:15.158Z,97830.00
2022-10-03T12:56:19.377Z,97834.00
2022-10-03T12:59:33.143Z,97832.00
2022-10-03T13:02:36.765Z,97810.00
2022-10-03T13:05:34.383Z,97816.00
2022-10-03T13:08:32.407Z,97808.00
2022-10-03T13:11:24.083Z,97807.00
2022-10-03T13:14:27.668Z,97809.00
2022-10-03T13:17:38.218Z,97805.00
2022-10-03T13:20:33.412Z,97792.00
2022-10-03T13:23:11.985Z,97785.00
2022-10-03T13:25:46.509Z,97792.00
2022-10-03T13:28:38.211Z,97789.00
2022-10-03T13:31:18.579Z,97783.00
2022-10-03T13:33:54.547Z,97787.00
2022-10-03T13:36:36.968Z,97786.00
2022-10-03T13:39:20.285Z,97784.00
2022-10-03T13:42:13.665Z,97781.00
2022-10-03T13:44:57.611Z,97783.00
2022-10-03T13:47:43.893Z,97777.00
2022-10-03T13:50:25.078Z,97774.00
2022-10-03T13:53:02.311Z,97773.00
2022-10-03T13:55:45.792Z,97767.00
2022-10-03T13:58:37.095Z,97766.00
2022-10-03T14:01:48.919Z,97767.00
2022-10-03T14:04:34.552Z,97762.00
2022-10-03T14:07:32.458Z,97760.00
2022-10-03T14:10:42.169Z,97759.00
2022-10-03T14:13:22.221Z,97759.00
2022-10-03T14:16:24.176Z,97762.00
2022-10-03T14:19:15.035Z,97757.00
2022-10-03T14:22:03.733Z,97751.00
2022-10-03T14:24:39.376Z,97758.00
2022-10-03T14:27:40.651Z,97756.00
2022-10-03T14:30:23.550Z,97755.00
2022-10-03T14:33:21.975Z,97751.00
2022-10-03T14:36:27.483Z,97752.00
2022-10-03T14:39:14.692Z,97762.00
2022-10-03T14:41:56.168Z,97751.00
2022-10-03T14:44:38.669Z,97757.00
2022-10-03T14:47:15.764Z,97766.00
2022-10-03T14:50:01.071Z,97767.00
2022-10-03T14:52:40.803Z,97755.00
2022-10-03T14:55:29.877Z,97759.00
2022-10-03T14:58:11.158Z,97762.00
2022-10-03T15:00:43.645Z,97747.00
2022-10-03T15:03:16.508Z,97760.00
2022-10-03T15:06:12.107Z,97758.00
2022-10-03T15:08:43.620Z,97754.00
2022-10-03T15:11:14.090Z,97755.00
2022-10-03T15:14:02.682Z,97753.00
2022-10-03T15:16:35.874Z,97754.00
2022-10-03T15:19:15.224Z,97757.00
2022-10-03T15:21:47.798Z,97751.00
2022-10-03T15:24:30.833Z,97745.00
2022-10-03T15:27:13.265Z,97749.00
2022-10-03T15:29:41.279Z,97745.00
2022-10-03T15:32:24.186Z,97747.00
2022-10-03T15:34:58.379Z,97746.00
2022-10-03T15:37:33.662Z,97748.00
2022-10-03T15:40:13.400Z,97749.00
2022-10-03T15:42:53.717Z,97741.00
2022-10-03T15:45:28.830Z,97748.00
2022-10-03T15:48:01.478Z,97747.00
2022-10-03T15:50:34.085Z,97752.00
2022-10-03T15:53:35.140Z,97748.00
2022-10-03T15:56:13.212Z,97750.00
2022-10-03T15:58:50.513Z,97747.00
2022-10-03T16:01:28.850Z,97748.00
2022-10-03T16:04:06.968Z,97743.00
2022-10-03T16:07:03.271Z,97737.00
2022-10-03T16:09:54.231Z,97745.00
2022-10-03T16:12:48.432Z,97735.00
2022-10-03T16:15:48.365Z,97729.00
2022-10-03T16:18:20.990Z,97729.00
2022-10-03T16:20:55.834Z,97730.00
2022-10-03T16:23:45.801Z,97732.00
2022-10-03T16:26:29.510Z,97727.00
2022-10-03T16:29:19.554Z,97749.00
2022-10-03T16:32:03.563Z,97738.00
2022-10-03T16:34:34.360Z,97742.00
2022-10-03T16:37:02.560Z,97737.00
2022-10-03T16:39:37.491Z,97750.00
2022-10-03T16:42:18.184Z,97752.00
2022-10-03T16:44:47.885Z,97758.00
2022-10-03T16:47:16.788Z,97755.00
2022-10-03T16:50:10.915Z,97758.00
2022-10-03T16:52:40.057Z,97754.00
2022-10-03T16:55:24.996Z,97765.00
2022-10-03T16:58:21.221Z,97766.00
2022-10-03T17:01:26.856Z,97758.00
2022-10-03T17:03:57.202Z,97760.00
2022-10-03T17:06:34.349Z,97772.00
2022-10-03T17:09:28.080Z,97767.00
2022-10-03T17:11:58.998Z,97760.00
2022-10-03T17:14:36.505Z,97761.00
2022-10-03T17:17:29.943Z,97757.00
2022-10-03T17:20:14.631Z,97745.00
2022-10-03T17:22:46.573Z,97737.00
2022-10-03T17:25:50.102Z,97737.00
2022-10-03T17:28:45.572Z,97735.00
2022-10-03T17:31:34.474Z,97739.00
2022-10-03T17:34:10.332Z,97732.00
2022-10-03T17:37:43.130Z,97741.00
2022-10-03T17:40:48.110Z,97742.00
2022-10-03T17:43:38.438Z,97735.00
2022-10-03T17:46:33.997Z,97738.00
2022-10-03T17:49:12.979Z,97728.00
2022-10-03T17:51:43.909Z,97737.00
2022-10-03T17:54:33.894Z,97747.00
2022-10-03T17:57:20.264Z,97734.00
2022-10-03T18:00:08.720Z,97740.00
2022-10-03T18:02:54.903Z,97736.00
2022-10-03T18:05:29.665Z,97743.00
2022-10-03T18:08:01.918Z,97747.00
2022-10-03T18:10:35.220Z,97742.00
2022-10-03T18:13:07.748Z,97742.00
2022-10-03T18:16:47.863Z,97738.00
2022-10-03T18:19:47.034Z,97746.00
2022-10-03T18:22:40.913Z,97737.00
2022-10-03T18:26:18.157Z,97740.00
2022-10-03T18:28:57.406Z,97732.00
2022-10-03T18:31:26.679Z,97726.00
2022-10-03T18:34:19.532Z,97730.00
2022-10-03T18:36:53.219Z,97726.00
2022-10-03T18:39:31.456Z,97721.00
2022-10-03T18:42:01.814Z,97724.00
2022-10-03T18:44:30.916Z,97715.00
2022-10-03T18:47:26.299Z,97724.00
2022-10-03T18:50:11.120Z,97730.00
2022-10-03T18:52:45.026Z,97735.00
2022-10-03T18:55:29.336Z,97722.00
2022-10-03T18:58:22.293Z,97714.00
2022-10-03T19:00:59.452Z,97728.00
2022-10-03T19:03:38.179Z,97740.00
2022-10-03T19:06:30.347Z,97750.00
2022-10-03T19:09:06.527Z,97748.00
2022-10-03T19:11:51.302Z,97727.00
2022-10-03T19:14:34.439Z,97709.00
2022-10-03T19:17:30.886Z,97714.00
2022-10-03T19:20:37.369Z,97716.00
2022-10-03T19:23:29.575Z,97715.00
2022-10-03T19:26:02.966Z,97710.00
2022-10-03T19:28:35.124Z,97711.00
2022-10-03T19:31:07.808Z,97715.00
2022-10-03T19:33:45.181Z,97706.00
2022-10-03T19:36:21.254Z,97703.00
2022-10-03T19:38:48.903Z,97711.00
2022-10-03T19:41:42.151Z,97713.00
2022-10-03T19:44:19.101Z,97716.00
2022-10-03T19:47:15.087Z,97720.00
2022-10-03T19:50:10.466Z,97722.00
2022-10-03T19:52:41.899Z,97723.00
2022-10-03T19:55:24.833Z,97728.00
2022-10-03T19:58:08.495Z,97733.00
2022-10-03T20:00:38.100Z,97736.00
2022-10-03T20:03:35.679Z,97728.00
2022-10-03T20:06:11.489Z,97714.00
2022-10-03T20:08:54.036Z,97711.00
2022-10-03T20:11:45.339Z,97707.00
2022-10-03T20:14:28.527Z,97696.00
2022-10-03T20:17:04.688Z,97715.00
2022-10-03T20:19:40.733Z,97711.00
2022-10-03T20:22:07.772Z,97709.00
2022-10-03T20:24:39.526Z,97704.00
2022-10-03T20:27:32.773Z,97701.00
2022-10-03T20:30:26.076Z,97699.00
2022-10-03T20:32:55.912Z,97701.00
2022-10-03T20:35:28.604Z,97689.00
2022-10-03T20:38:49.212Z,97693.00
2022-10-03T20:41:35.856Z,97701.00
2022-10-03T20:44:12.883Z,97688.00
2022-10-03T20:47:48.429Z,97691.00
2022-10-03T20:51:01.853Z,97683.00
2022-10-03T20:53:46.552Z,97680.00
2022-10-03T20:57:45.136Z,97669.00
2022-10-03T21:04:47.683Z,97677.00
2022-10-03T21:11:45.009Z,97685.00
2022-10-03T21:14:27.734Z,97685.00
2022-10-03T21:16:55.292Z,97683.00
2022-10-03T21:19:31.585Z,97693.00
2022-10-03T21:22:04.195Z,97688.00
2022-10-03T21:24:39.352Z,97672.00
2022-10-03T21:27:13.254Z,97666.00
2022-10-03T21:29:53.862Z,97657.00
2022-10-03T21:32:54.468Z,97657.00
2022-10-03T21:35:26.974Z,97660.00
2022-10-03T21:38:27.373Z,97654.00
2022-10-03T21:41:37.987Z,97652.00
2022-10-03T21:44:25.982Z,97659.00
2022-10-03T21:47:04.299Z,97647.00
2022-10-03T21:49:59.696Z,97661.00
2022-10-03T21:52:54.595Z,97667.00
2022-10-03T21:55:55.160Z,97660.00
2022-10-03T21:58:49.844Z,97660.00
2022-10-03T22:01:40.492Z,97652.00
2022-10-03T22:04:18.954Z,97651.00
2022-10-03T22:07:15.146Z,97651.00
2022-10-03T22:09:53.942Z,97643.00
2022-10-03T22:12:21.771Z,97646.00
2022-10-03T22:15:01.592Z,97651.00
2022-10-03T22:17:58.270Z,97641.00
2022-10-03T22:20:28.949Z,97636.00
2022-10-03T22:23:09.133Z,97635.00
2022-10-03T22:26:07.712Z,97623.00
2022-10-03T22:29:10.054Z,97624.00
2022-10-03T22:32:06.642Z,97624.00
2022-10-03T22:35:11.020Z,97620.00
2022-10-03T22:37:39.077Z,97626.00
2022-10-03T22:40:06.591Z,97627.00
2022-10-03T22:42:49.180Z,97623.00
2022-10-03T22:45:17.159Z,97624.00
2022-10-03T22:47:51.528Z,97608.00
2022-10-03T22:50:21.515Z,97612.00
2022-10-03T22:52:51.815Z,97613.00
2022-10-03T22:55:22.510Z,97612.00
2022-10-03T22:57:51.359Z,97603.00
2022-10-03T23:00:24.838Z,97593.00
2022-10-03T23:03:06.905Z,97597.00
2022-10-03T23:06:16.685Z,97593.00
2022-10-03T23:09:28.492Z,97593.00
2022-10-03T23:11:57.475Z,97590.00
2022-10-03T23:14:29.895Z,97588.00
2022-10-03T23:17:28.471Z,97595.00
2022-10-03T23:20:47.077Z,97597.00
2022-10-03T23:23:21.277Z,97590.00
2022-10-03T23:26:23.768Z,97601.00
2022-10-03T23:29:06.139Z,97599.00
2022-10-03T23:32:10.000Z,97599.00
2022-10-03T23:34:36.805Z,97600.00
2022-10-03T23:37:15.355Z,97600.00
2022-10-03T23:39:55.392Z,97597.00
2022-10-03T23:42:43.776Z,97599.00
2022-10-03T23:45:19.730Z,97595.00
2022-10-03T23:48:10.147Z,97604.00
2022-10-03T23:50:44.338Z,97592.00
2022-10-03T23:53:33.674Z,97584.00
2022-10-03T23:56:03.575Z,97578.00
2022-10-03T23:58:34.239Z,97580.00
